Etusivu
METAR-TAF:

METAR-TAF

Lentoasemat :

Capo Mele

Andora, Italia

Leveyspiiri: 43-57N, Pituuspiiri: 008-10E, korkeus merenpinnasta: 220 m

Tämänhetkinen sää

Tämä raportti tehtiin 21 minuuttia sitten, kello 14.55 UTC
Tuuli 13 kn koillisesta
Lämpötila 23°C
Kosteus 73%
Ilmanpaine 1019 hPa
Näkyvyys 10 km tai enemmän
Hajanaisia pilviä 2000 ft:n korkeudessa
Hajanaisia pilviä 2600 ft:n korkeudessa

METAR: LIMU 141455Z 04013KT 9999 SCT020 SCT026 23/18 Q1019 RMK BKN BKN060 QUK 3 QUL 1 S VIS MAR 15 KM VIS MIN 9999

Aika: 17:16 (15:16 UTC)


TAF: puuttuu

Säähavainnot ja -ennusteet yli 4000 lentoasemalta (METAR- ja TAF-raportit).

Käytössä olevat sääasemat on merkitty karttaan keltaisilla ja punaisilla pisteillä.

Aseta hiiri pisteen päälle nähdäksesi sääaseman nimen.

Klikkaa sitten nähdäksesi säähavainnot ja -ennusteet.

Kartan vaihtaminen: klikkaa mustalla rastilla varustettuja vihreitä pisteitä, niin voit zoomata sisään; viivalla varustettua vihreää pistettä, niin voit zoomata ulos tai vihreitä nuolia, niin pääset viereisille kartoille.


METAR-TAF: